sensor_id;sensor_type;location;lat;lon;timestamp;pressure;altitude;pressure_sealevel;temperature;humidity
39937;BME280;27803;42.740;23.340;2023-12-20T00:02:11;95931.59;;;-1.69;100.00
39937;BME280;27803;42.740;23.340;2023-12-20T00:04:37;95918.66;;;-1.78;100.00
39937;BME280;27803;42.740;23.340;2023-12-20T00:07:02;95921.97;;;-1.65;100.00
39937;BME280;27803;42.740;23.340;2023-12-20T00:09:28;95919.00;;;-1.48;100.00
39937;BME280;27803;42.740;23.340;2023-12-20T00:11:53;95928.22;;;-1.45;100.00
39937;BME280;27803;42.740;23.340;2023-12-20T00:14:18;95933.75;;;-1.27;100.00
39937;BME280;27803;42.740;23.340;2023-12-20T00:16:44;95889.06;;;-1.36;100.00
39937;BME280;27803;42.740;23.340;2023-12-20T00:19:09;95896.91;;;-1.26;100.00
39937;BME280;27803;42.740;23.340;2023-12-20T00:21:34;95895.38;;;-1.40;100.00
39937;BME280;27803;42.740;23.340;2023-12-20T00:24:00;95884.94;;;-1.50;100.00
39937;BME280;27803;42.740;23.340;2023-12-20T00:26:25;95895.97;;;-1.37;100.00
39937;BME280;27803;42.740;23.340;2023-12-20T00:28:51;95889.41;;;-1.41;100.00
39937;BME280;27803;42.740;23.340;2023-12-20T00:31:16;95891.41;;;-1.33;100.00
39937;BME280;27803;42.740;23.340;2023-12-20T00:33:42;95869.72;;;-1.40;100.00
39937;BME280;27803;42.740;23.340;2023-12-20T00:36:09;95880.22;;;-1.32;100.00
39937;BME280;27803;42.740;23.340;2023-12-20T00:38:34;95866.38;;;-1.29;100.00
39937;BME280;27803;42.740;23.340;2023-12-20T00:41:00;95849.94;;;-1.27;100.00
39937;BME280;27803;42.740;23.340;2023-12-20T00:43:25;95884.03;;;-1.03;100.00
39937;BME280;27803;42.740;23.340;2023-12-20T00:45:51;95869.91;;;-1.08;100.00
39937;BME280;27803;42.740;23.340;2023-12-20T00:48:17;95846.34;;;-1.13;100.00
39937;BME280;27803;42.740;23.340;2023-12-20T00:50:42;95850.66;;;-1.03;100.00
39937;BME280;27803;42.740;23.340;2023-12-20T00:53:07;95862.34;;;-0.87;100.00
39937;BME280;27803;42.740;23.340;2023-12-20T00:55:33;95863.63;;;-0.93;100.00
39937;BME280;27803;42.740;23.340;2023-12-20T00:57:58;95871.91;;;-1.01;100.00
39937;BME280;27803;42.740;23.340;2023-12-20T01:00:25;95838.84;;;-1.27;100.00
39937;BME280;27803;42.740;23.340;2023-12-20T01:02:50;95858.56;;;-1.28;100.00
39937;BME280;27803;42.740;23.340;2023-12-20T01:05:17;95861.81;;;-1.26;100.00
39937;BME280;27803;42.740;23.340;2023-12-20T01:07:43;95854.38;;;-1.18;100.00
39937;BME280;27803;42.740;23.340;2023-12-20T01:10:36;95853.09;;;-1.12;100.00
39937;BME280;27803;42.740;23.340;2023-12-20T01:13:01;95839.91;;;-1.19;100.00
39937;BME280;27803;42.740;23.340;2023-12-20T01:15:26;95832.31;;;-1.32;100.00
39937;BME280;27803;42.740;23.340;2023-12-20T01:17:55;95821.38;;;-1.22;100.00
39937;BME280;27803;42.740;23.340;2023-12-20T01:20:22;95839.69;;;-1.05;100.00
39937;BME280;27803;42.740;23.340;2023-12-20T01:22:50;95856.25;;;-1.09;100.00
39937;BME280;27803;42.740;23.340;2023-12-20T01:25:16;95811.19;;;-1.35;100.00
39937;BME280;27803;42.740;23.340;2023-12-20T01:27:41;95807.69;;;-1.45;100.00
39937;BME280;27803;42.740;23.340;2023-12-20T01:30:07;95823.13;;;-1.23;100.00
39937;BME280;27803;42.740;23.340;2023-12-20T01:32:32;95825.34;;;-1.18;100.00
39937;BME280;27803;42.740;23.340;2023-12-20T01:34:58;95808.06;;;-1.27;100.00
39937;BME280;27803;42.740;23.340;2023-12-20T01:37:23;95812.16;;;-1.25;100.00
39937;BME280;27803;42.740;23.340;2023-12-20T01:39:50;95829.41;;;-1.16;100.00
39937;BME280;27803;42.740;23.340;2023-12-20T01:42:15;95823.00;;;-1.21;100.00
39937;BME280;27803;42.740;23.340;2023-12-20T01:44:41;95813.56;;;-1.21;100.00
39937;BME280;27803;42.740;23.340;2023-12-20T01:47:07;95781.59;;;-1.28;100.00
39937;BME280;27803;42.740;23.340;2023-12-20T01:49:33;95810.88;;;-1.08;100.00
39937;BME280;27803;42.740;23.340;2023-12-20T01:51:58;95775.31;;;-1.24;100.00
39937;BME280;27803;42.740;23.340;2023-12-20T01:54:24;95757.56;;;-1.49;100.00
39937;BME280;27803;42.740;23.340;2023-12-20T01:56:50;95793.09;;;-1.56;100.00
39937;BME280;27803;42.740;23.340;2023-12-20T01:59:17;95774.88;;;-1.86;100.00
39937;BME280;27803;42.740;23.340;2023-12-20T02:01:43;95782.22;;;-1.82;100.00
39937;BME280;27803;42.740;23.340;2023-12-20T02:04:09;95791.06;;;-1.86;100.00
39937;BME280;27803;42.740;23.340;2023-12-20T02:06:34;95784.78;;;-1.82;100.00
39937;BME280;27803;42.740;23.340;2023-12-20T02:09:00;95788.53;;;-1.75;100.00
39937;BME280;27803;42.740;23.340;2023-12-20T02:11:26;95765.44;;;-1.86;100.00
39937;BME280;27803;42.740;23.340;2023-12-20T02:13:51;95778.63;;;-1.68;100.00
39937;BME280;27803;42.740;23.340;2023-12-20T02:16:17;95787.13;;;-1.79;100.00
39937;BME280;27803;42.740;23.340;2023-12-20T02:18:43;95785.25;;;-1.77;100.00
39937;BME280;27803;42.740;23.340;2023-12-20T02:21:10;95769.88;;;-1.66;100.00
39937;BME280;27803;42.740;23.340;2023-12-20T02:23:35;95771.66;;;-1.55;100.00
39937;BME280;27803;42.740;23.340;2023-12-20T02:26:01;95755.94;;;-1.50;100.00
39937;BME280;27803;42.740;23.340;2023-12-20T02:28:26;95760.38;;;-1.41;100.00
39937;BME280;27803;42.740;23.340;2023-12-20T02:30:52;95730.06;;;-1.47;100.00
39937;BME280;27803;42.740;23.340;2023-12-20T02:33:18;95741.94;;;-1.46;100.00
39937;BME280;27803;42.740;23.340;2023-12-20T02:35:43;95756.88;;;-1.40;100.00
39937;BME280;27803;42.740;23.340;2023-12-20T02:38:08;95725.63;;;-1.56;100.00
39937;BME280;27803;42.740;23.340;2023-12-20T02:40:34;95745.44;;;-1.47;100.00
39937;BME280;27803;42.740;23.340;2023-12-20T02:42:59;95746.25;;;-1.47;100.00
39937;BME280;27803;42.740;23.340;2023-12-20T02:45:26;95716.28;;;-1.69;100.00
39937;BME280;27803;42.740;23.340;2023-12-20T02:47:51;95742.94;;;-1.71;100.00
39937;BME280;27803;42.740;23.340;2023-12-20T02:50:17;95752.16;;;-1.69;100.00
39937;BME280;27803;42.740;23.340;2023-12-20T02:52:44;95739.22;;;-1.67;100.00
39937;BME280;27803;42.740;23.340;2023-12-20T02:55:10;95742.84;;;-1.81;100.00
39937;BME280;27803;42.740;23.340;2023-12-20T02:57:35;95744.72;;;-1.83;100.00
39937;BME280;27803;42.740;23.340;2023-12-20T03:00:01;95744.25;;;-1.77;100.00
39937;BME280;27803;42.740;23.340;2023-12-20T03:02:27;95732.38;;;-1.78;100.00
39937;BME280;27803;42.740;23.340;2023-12-20T03:04:52;95745.78;;;-1.63;100.00
39937;BME280;27803;42.740;23.340;2023-12-20T03:07:17;95738.66;;;-1.59;100.00
39937;BME280;27803;42.740;23.340;2023-12-20T03:09:43;95708.69;;;-1.70;100.00
39937;BME280;27803;42.740;23.340;2023-12-20T03:12:08;95745.44;;;-1.58;100.00
39937;BME280;27803;42.740;23.340;2023-12-20T03:14:33;95735.19;;;-1.47;100.00
39937;BME280;27803;42.740;23.340;2023-12-20T03:16:59;95707.19;;;-1.61;100.00
39937;BME280;27803;42.740;23.340;2023-12-20T03:19:24;95712.78;;;-1.56;100.00
39937;BME280;27803;42.740;23.340;2023-12-20T03:21:50;95744.03;;;-1.51;100.00
39937;BME280;27803;42.740;23.340;2023-12-20T03:24:15;95723.41;;;-1.50;100.00
39937;BME280;27803;42.740;23.340;2023-12-20T03:26:40;95714.56;;;-1.35;100.00
39937;BME280;27803;42.740;23.340;2023-12-20T03:29:06;95726.56;;;-1.24;100.00
39937;BME280;27803;42.740;23.340;2023-12-20T03:31:31;95715.13;;;-1.31;100.00
39937;BME280;27803;42.740;23.340;2023-12-20T03:33:56;95722.47;;;-1.38;100.00
39937;BME280;27803;42.740;23.340;2023-12-20T03:36:22;95703.81;;;-1.51;100.00
39937;BME280;27803;42.740;23.340;2023-12-20T03:38:47;95688.66;;;-1.54;100.00
39937;BME280;27803;42.740;23.340;2023-12-20T03:41:13;95720.97;;;-1.40;100.00
39937;BME280;27803;42.740;23.340;2023-12-20T03:43:38;95718.41;;;-1.40;100.00
39937;BME280;27803;42.740;23.340;2023-12-20T03:46:04;95686.22;;;-1.44;100.00
39937;BME280;27803;42.740;23.340;2023-12-20T03:48:30;95710.47;;;-1.26;100.00
39937;BME280;27803;42.740;23.340;2023-12-20T03:50:57;95712.00;;;-1.23;100.00
39937;BME280;27803;42.740;23.340;2023-12-20T03:53:22;95724.94;;;-1.25;100.00
39937;BME280;27803;42.740;23.340;2023-12-20T03:55:47;95706.50;;;-1.30;100.00
39937;BME280;27803;42.740;23.340;2023-12-20T03:58:13;95691.13;;;-1.41;100.00
39937;BME280;27803;42.740;23.340;2023-12-20T04:00:38;95709.06;;;-1.30;100.00
39937;BME280;27803;42.740;23.340;2023-12-20T04:03:04;95684.00;;;-1.38;100.00
39937;BME280;27803;42.740;23.340;2023-12-20T04:05:29;95687.63;;;-1.29;100.00
39937;BME280;27803;42.740;23.340;2023-12-20T04:07:55;95706.63;;;-1.20;100.00
39937;BME280;27803;42.740;23.340;2023-12-20T04:10:20;95676.66;;;-1.20;100.00
39937;BME280;27803;42.740;23.340;2023-12-20T04:12:45;95690.84;;;-1.05;100.00
39937;BME280;27803;42.740;23.340;2023-12-20T04:15:11;95662.66;;;-1.16;100.00
39937;BME280;27803;42.740;23.340;2023-12-20T04:17:37;95686.09;;;-1.09;100.00
39937;BME280;27803;42.740;23.340;2023-12-20T04:20:02;95679.69;;;-1.15;100.00
39937;BME280;27803;42.740;23.340;2023-12-20T04:22:28;95683.88;;;-1.25;100.00
39937;BME280;27803;42.740;23.340;2023-12-20T04:24:53;95690.88;;;-1.27;100.00
39937;BME280;27803;42.740;23.340;2023-12-20T04:27:19;95688.56;;;-1.41;100.00
39937;BME280;27803;42.740;23.340;2023-12-20T04:29:44;95684.81;;;-1.37;100.00
39937;BME280;27803;42.740;23.340;2023-12-20T04:32:09;95680.84;;;-1.08;100.00
39937;BME280;27803;42.740;23.340;2023-12-20T04:34:35;95673.97;;;-1.29;100.00
39937;BME280;27803;42.740;23.340;2023-12-20T04:37:01;95655.44;;;-1.33;100.00
39937;BME280;27803;42.740;23.340;2023-12-20T04:39:26;95675.97;;;-1.22;100.00
39937;BME280;27803;42.740;23.340;2023-12-20T04:41:52;95677.81;;;-1.13;100.00
39937;BME280;27803;42.740;23.340;2023-12-20T04:44:17;95642.84;;;-1.25;100.00
39937;BME280;27803;42.740;23.340;2023-12-20T04:46:43;95668.00;;;-1.08;100.00
39937;BME280;27803;42.740;23.340;2023-12-20T04:49:08;95660.44;;;-1.20;100.00
39937;BME280;27803;42.740;23.340;2023-12-20T04:51:34;95662.19;;;-1.21;100.00
39937;BME280;27803;42.740;23.340;2023-12-20T04:54:00;95665.34;;;-1.28;100.00
39937;BME280;27803;42.740;23.340;2023-12-20T04:56:26;95669.44;;;-1.37;100.00
39937;BME280;27803;42.740;23.340;2023-12-20T04:58:51;95664.31;;;-1.37;100.00
39937;BME280;27803;42.740;23.340;2023-12-20T05:01:17;95665.34;;;-1.40;100.00
39937;BME280;27803;42.740;23.340;2023-12-20T05:03:42;95672.47;;;-1.32;100.00
39937;BME280;27803;42.740;23.340;2023-12-20T05:06:09;95644.25;;;-1.43;100.00
39937;BME280;27803;42.740;23.340;2023-12-20T05:08:34;95640.06;;;-1.55;100.00
39937;BME280;27803;42.740;23.340;2023-12-20T05:11:00;95634.72;;;-1.52;100.00
39937;BME280;27803;42.740;23.340;2023-12-20T05:13:25;95630.16;;;-1.49;100.00
39937;BME280;27803;42.740;23.340;2023-12-20T05:15:51;95662.78;;;-1.40;100.00
39937;BME280;27803;42.740;23.340;2023-12-20T05:18:16;95629.59;;;-1.52;100.00
39937;BME280;27803;42.740;23.340;2023-12-20T05:20:41;95652.66;;;-1.41;100.00
39937;BME280;27803;42.740;23.340;2023-12-20T05:23:07;95648.56;;;-1.33;100.00
39937;BME280;27803;42.740;23.340;2023-12-20T05:25:32;95655.69;;;-1.36;100.00
39937;BME280;27803;42.740;23.340;2023-12-20T05:27:58;95658.94;;;-1.34;100.00
39937;BME280;27803;42.740;23.340;2023-12-20T05:30:23;95626.06;;;-1.29;100.00
39937;BME280;27803;42.740;23.340;2023-12-20T05:32:48;95621.16;;;-1.21;100.00
39937;BME280;27803;42.740;23.340;2023-12-20T05:35:14;95617.88;;;-1.23;100.00
39937;BME280;27803;42.740;23.340;2023-12-20T05:37:40;95616.75;;;-1.41;100.00
39937;BME280;27803;42.740;23.340;2023-12-20T05:40:06;95617.91;;;-1.34;100.00
39937;BME280;27803;42.740;23.340;2023-12-20T05:42:32;95609.84;;;-1.29;100.00
39937;BME280;27803;42.740;23.340;2023-12-20T05:44:57;95630.00;;;-1.14;100.00
39937;BME280;27803;42.740;23.340;2023-12-20T05:47:23;95628.94;;;-1.11;100.00
39937;BME280;27803;42.740;23.340;2023-12-20T05:49:48;95579.66;;;-1.26;100.00
39937;BME280;27803;42.740;23.340;2023-12-20T05:52:15;95629.22;;;-0.82;100.00
39937;BME280;27803;42.740;23.340;2023-12-20T05:54:40;95625.78;;;-0.72;100.00
39937;BME280;27803;42.740;23.340;2023-12-20T05:57:05;95610.22;;;-0.91;100.00
39937;BME280;27803;42.740;23.340;2023-12-20T05:59:31;95620.78;;;-0.73;100.00
39937;BME280;27803;42.740;23.340;2023-12-20T06:01:56;95601.66;;;-0.80;100.00
39937;BME280;27803;42.740;23.340;2023-12-20T06:04:22;95615.19;;;-0.78;100.00
39937;BME280;27803;42.740;23.340;2023-12-20T06:06:47;95588.06;;;-0.92;100.00
39937;BME280;27803;42.740;23.340;2023-12-20T06:09:12;95613.72;;;-0.92;100.00
39937;BME280;27803;42.740;23.340;2023-12-20T06:11:38;95597.22;;;-1.10;100.00
39937;BME280;27803;42.740;23.340;2023-12-20T06:14:03;95613.41;;;-0.99;100.00
39937;BME280;27803;42.740;23.340;2023-12-20T06:16:29;95621.31;;;-0.90;100.00
39937;BME280;27803;42.740;23.340;2023-12-20T06:18:54;95602.00;;;-1.06;100.00
39937;BME280;27803;42.740;23.340;2023-12-20T06:21:19;95600.94;;;-1.03;100.00
39937;BME280;27803;42.740;23.340;2023-12-20T06:23:45;95595.91;;;-1.05;100.00
39937;BME280;27803;42.740;23.340;2023-12-20T06:26:10;95584.63;;;-1.13;100.00
39937;BME280;27803;42.740;23.340;2023-12-20T06:28:35;95606.88;;;-1.03;100.00
39937;BME280;27803;42.740;23.340;2023-12-20T06:31:01;95621.53;;;-0.93;100.00
39937;BME280;27803;42.740;23.340;2023-12-20T06:33:26;95638.34;;;-0.89;100.00
39937;BME280;27803;42.740;23.340;2023-12-20T06:35:52;95617.53;;;-0.75;100.00
39937;BME280;27803;42.740;23.340;2023-12-20T06:38:18;95614.06;;;-0.85;100.00
39937;BME280;27803;42.740;23.340;2023-12-20T06:40:43;95613.88;;;-0.73;100.00
39937;BME280;27803;42.740;23.340;2023-12-20T06:43:09;95611.53;;;-0.64;100.00
39937;BME280;27803;42.740;23.340;2023-12-20T06:45:35;95607.44;;;-0.67;100.00
39937;BME280;27803;42.740;23.340;2023-12-20T06:48:00;95618.16;;;-0.62;100.00
39937;BME280;27803;42.740;23.340;2023-12-20T06:50:25;95609.72;;;-0.53;100.00
39937;BME280;27803;42.740;23.340;2023-12-20T06:52:51;95599.81;;;-0.37;100.00
39937;BME280;27803;42.740;23.340;2023-12-20T06:55:17;95583.09;;;-0.52;100.00
39937;BME280;27803;42.740;23.340;2023-12-20T06:57:43;95608.34;;;-0.57;100.00
39937;BME280;27803;42.740;23.340;2023-12-20T07:00:08;95578.50;;;-0.69;100.00
39937;BME280;27803;42.740;23.340;2023-12-20T07:02:36;95581.09;;;-0.69;100.00
39937;BME280;27803;42.740;23.340;2023-12-20T07:05:01;95617.22;;;-0.61;100.00
39937;BME280;27803;42.740;23.340;2023-12-20T07:07:26;95572.44;;;-0.68;100.00
39937;BME280;27803;42.740;23.340;2023-12-20T07:09:52;95591.78;;;-0.64;100.00
39937;BME280;27803;42.740;23.340;2023-12-20T07:12:17;95590.84;;;-0.63;100.00
39937;BME280;27803;42.740;23.340;2023-12-20T07:14:45;95602.31;;;-0.67;100.00
39937;BME280;27803;42.740;23.340;2023-12-20T07:17:10;95597.91;;;-0.76;100.00
39937;BME280;27803;42.740;23.340;2023-12-20T07:19:38;95596.63;;;-0.71;100.00
39937;BME280;27803;42.740;23.340;2023-12-20T07:22:05;95593.22;;;-0.71;100.00
39937;BME280;27803;42.740;23.340;2023-12-20T07:24:30;95602.56;;;-0.70;100.00
39937;BME280;27803;42.740;23.340;2023-12-20T07:26:56;95575.88;;;-0.79;100.00
39937;BME280;27803;42.740;23.340;2023-12-20T07:29:21;95565.22;;;-0.74;100.00
39937;BME280;27803;42.740;23.340;2023-12-20T07:31:47;95579.66;;;-0.62;100.00
39937;BME280;27803;42.740;23.340;2023-12-20T07:34:12;95578.66;;;-0.50;100.00
39937;BME280;27803;42.740;23.340;2023-12-20T07:36:38;95581.16;;;-0.39;100.00
39937;BME280;27803;42.740;23.340;2023-12-20T07:39:03;95582.28;;;-0.31;100.00
39937;BME280;27803;42.740;23.340;2023-12-20T07:41:28;95586.81;;;-0.45;100.00
39937;BME280;27803;42.740;23.340;2023-12-20T07:43:54;95559.78;;;-0.60;100.00
39937;BME280;27803;42.740;23.340;2023-12-20T07:46:21;95578.16;;;-0.44;100.00
39937;BME280;27803;42.740;23.340;2023-12-20T07:48:48;95562.13;;;-0.57;100.00
39937;BME280;27803;42.740;23.340;2023-12-20T07:51:14;95577.09;;;-0.62;100.00
39937;BME280;27803;42.740;23.340;2023-12-20T07:53:39;95578.50;;;-0.69;100.00
39937;BME280;27803;42.740;23.340;2023-12-20T07:56:18;95540.38;;;-0.74;100.00
39937;BME280;27803;42.740;23.340;2023-12-20T07:58:45;95578.50;;;-0.69;100.00
39937;BME280;27803;42.740;23.340;2023-12-20T08:01:11;95552.28;;;-0.73;100.00
39937;BME280;27803;42.740;23.340;2023-12-20T08:03:37;95538.25;;;-0.69;100.00
39937;BME280;27803;42.740;23.340;2023-12-20T08:06:03;95572.19;;;-0.44;100.00
39937;BME280;27803;42.740;23.340;2023-12-20T08:08:30;95561.47;;;-0.28;100.00
39937;BME280;27803;42.740;23.340;2023-12-20T08:10:55;95555.66;;;-0.30;100.00
39937;BME280;27803;42.740;23.340;2023-12-20T08:13:23;95537.41;;;-0.27;100.00
39937;BME280;27803;42.740;23.340;2023-12-20T08:15:54;95549.25;;;-0.15;100.00
39937;BME280;27803;42.740;23.340;2023-12-20T08:18:21;95548.47;;;0.04;100.00
39937;BME280;27803;42.740;23.340;2023-12-20T08:20:46;95561.13;;;0.16;100.00
39937;BME280;27803;42.740;23.340;2023-12-20T08:23:13;95532.06;;;0.25;100.00
39937;BME280;27803;42.740;23.340;2023-12-20T08:25:38;95552.53;;;0.37;100.00
39937;BME280;27803;42.740;23.340;2023-12-20T08:28:04;95544.66;;;0.28;100.00
39937;BME280;27803;42.740;23.340;2023-12-20T08:30:29;95547.06;;;0.20;100.00
39937;BME280;27803;42.740;23.340;2023-12-20T08:32:56;95539.97;;;0.03;100.00
39937;BME280;27803;42.740;23.340;2023-12-20T08:35:21;95540.13;;;0.11;100.00
39937;BME280;27803;42.740;23.340;2023-12-20T08:37:47;95538.31;;;0.32;100.00
39937;BME280;27803;42.740;23.340;2023-12-20T08:40:12;95541.97;;;0.40;100.00
39937;BME280;27803;42.740;23.340;2023-12-20T08:42:38;95536.53;;;0.33;100.00
39937;BME280;27803;42.740;23.340;2023-12-20T08:45:04;95522.72;;;0.24;100.00
39937;BME280;27803;42.740;23.340;2023-12-20T08:47:30;95518.94;;;0.28;100.00
39937;BME280;27803;42.740;23.340;2023-12-20T08:49:55;95521.16;;;0.43;100.00
39937;BME280;27803;42.740;23.340;2023-12-20T08:52:23;95518.47;;;0.54;100.00
39937;BME280;27803;42.740;23.340;2023-12-20T08:54:49;95511.72;;;0.72;100.00
39937;BME280;27803;42.740;23.340;2023-12-20T08:57:18;95486.25;;;0.69;100.00
39937;BME280;27803;42.740;23.340;2023-12-20T08:59:43;95521.19;;;0.81;100.00
39937;BME280;27803;42.740;23.340;2023-12-20T09:02:09;95497.38;;;0.89;100.00
39937;BME280;27803;42.740;23.340;2023-12-20T09:04:34;95485.44;;;0.97;100.00
39937;BME280;27803;42.740;23.340;2023-12-20T09:07:00;95477.31;;;1.12;100.00
39937;BME280;27803;42.740;23.340;2023-12-20T09:09:26;95467.00;;;1.12;100.00
39937;BME280;27803;42.740;23.340;2023-12-20T09:11:51;95468.88;;;1.19;100.00
39937;BME280;27803;42.740;23.340;2023-12-20T09:14:17;95459.00;;;1.15;100.00
39937;BME280;27803;42.740;23.340;2023-12-20T09:16:42;95453.44;;;1.10;100.00
39937;BME280;27803;42.740;23.340;2023-12-20T09:19:08;95449.38;;;1.17;100.00
39937;BME280;27803;42.740;23.340;2023-12-20T09:21:33;95442.03;;;1.22;100.00
39937;BME280;27803;42.740;23.340;2023-12-20T09:23:58;95416.06;;;1.06;100.00
39937;BME280;27803;42.740;23.340;2023-12-20T09:26:24;95449.88;;;1.30;100.00
39937;BME280;27803;42.740;23.340;2023-12-20T09:28:49;95426.31;;;1.25;100.00
39937;BME280;27803;42.740;23.340;2023-12-20T09:31:14;95413.59;;;1.14;100.00
39937;BME280;27803;42.740;23.340;2023-12-20T09:33:40;95406.59;;;0.96;100.00
39937;BME280;27803;42.740;23.340;2023-12-20T09:36:05;95397.50;;;0.92;100.00
39937;BME280;27803;42.740;23.340;2023-12-20T09:38:31;95396.03;;;0.80;100.00
39937;BME280;27803;42.740;23.340;2023-12-20T09:40:56;95383.16;;;0.80;100.00
39937;BME280;27803;42.740;23.340;2023-12-20T09:43:24;95395.72;;;1.03;100.00
39937;BME280;27803;42.740;23.340;2023-12-20T09:45:53;95398.66;;;1.27;100.00
39937;BME280;27803;42.740;23.340;2023-12-20T09:48:19;95370.59;;;1.24;100.00
39937;BME280;27803;42.740;23.340;2023-12-20T09:50:45;95375.25;;;1.48;100.00
39937;BME280;27803;42.740;23.340;2023-12-20T09:53:15;95386.09;;;1.51;100.00
39937;BME280;27803;42.740;23.340;2023-12-20T09:55:41;95363.00;;;1.32;100.00
39937;BME280;27803;42.740;23.340;2023-12-20T09:58:06;95402.00;;;1.37;100.00
39937;BME280;27803;42.740;23.340;2023-12-20T10:00:34;95403.75;;;1.46;100.00
39937;BME280;27803;42.740;23.340;2023-12-20T10:03:00;95332.88;;;1.33;100.00
39937;BME280;27803;42.740;23.340;2023-12-20T10:05:29;95372.75;;;1.66;100.00
39937;BME280;27803;42.740;23.340;2023-12-20T10:07:55;95371.84;;;1.75;100.00
39937;BME280;27803;42.740;23.340;2023-12-20T10:10:20;95348.31;;;1.70;100.00
39937;BME280;27803;42.740;23.340;2023-12-20T10:15:26;95349.63;;;1.74;100.00
39937;BME280;27803;42.740;23.340;2023-12-20T10:17:52;95342.53;;;1.76;100.00
39937;BME280;27803;42.740;23.340;2023-12-20T10:20:17;95366.59;;;1.94;100.00
39937;BME280;27803;42.740;23.340;2023-12-20T10:22:42;95334.19;;;2.09;100.00
39937;BME280;27803;42.740;23.340;2023-12-20T10:25:08;95311.66;;;2.11;100.00
39937;BME280;27803;42.740;23.340;2023-12-20T10:27:33;95313.84;;;2.06;100.00
39937;BME280;27803;42.740;23.340;2023-12-20T10:29:59;95335.81;;;2.10;100.00
39937;BME280;27803;42.740;23.340;2023-12-20T10:32:26;95319.00;;;2.06;100.00
39937;BME280;27803;42.740;23.340;2023-12-20T10:34:53;95332.88;;;2.23;100.00
39937;BME280;27803;42.740;23.340;2023-12-20T10:37:19;95308.41;;;2.09;100.00
39937;BME280;27803;42.740;23.340;2023-12-20T10:39:50;95293.75;;;2.10;100.00
39937;BME280;27803;42.740;23.340;2023-12-20T10:42:18;95305.59;;;2.20;100.00
39937;BME280;27803;42.740;23.340;2023-12-20T10:44:46;95295.72;;;2.34;100.00
39937;BME280;27803;42.740;23.340;2023-12-20T10:47:13;95285.25;;;2.35;100.00
39937;BME280;27803;42.740;23.340;2023-12-20T10:49:40;95297.84;;;2.38;100.00
39937;BME280;27803;42.740;23.340;2023-12-20T10:52:08;95282.75;;;2.25;100.00
39937;BME280;27803;42.740;23.340;2023-12-20T10:54:34;95283.78;;;2.33;100.00
39937;BME280;27803;42.740;23.340;2023-12-20T10:57:00;95293.50;;;2.39;100.00
39937;BME280;27803;42.740;23.340;2023-12-20T10:59:27;95261.03;;;2.54;100.00
39937;BME280;27803;42.740;23.340;2023-12-20T11:01:55;95264.22;;;2.48;100.00
39937;BME280;27803;42.740;23.340;2023-12-20T11:04:31;95280.16;;;2.69;100.00
39937;BME280;27803;42.740;23.340;2023-12-20T11:07:16;95252.44;;;2.71;100.00
39937;BME280;27803;42.740;23.340;2023-12-20T11:09:47;95281.19;;;2.76;100.00
39937;BME280;27803;42.740;23.340;2023-12-20T11:14:55;95255.34;;;2.50;100.00
39937;BME280;27803;42.740;23.340;2023-12-20T11:17:22;95260.50;;;2.24;100.00
39937;BME280;27803;42.740;23.340;2023-12-20T11:22:17;95242.38;;;2.16;100.00
39937;BME280;27803;42.740;23.340;2023-12-20T11:24:44;95234.28;;;2.11;100.00
39937;BME280;27803;42.740;23.340;2023-12-20T11:27:09;95227.56;;;2.18;100.00
39937;BME280;27803;42.740;23.340;2023-12-20T11:29:36;95214.78;;;2.35;100.00
39937;BME280;27803;42.740;23.340;2023-12-20T11:34:55;95207.88;;;2.17;100.00
39937;BME280;27803;42.740;23.340;2023-12-20T11:37:21;95210.41;;;2.09;100.00
39937;BME280;27803;42.740;23.340;2023-12-20T11:39:55;95188.63;;;2.29;100.00
39937;BME280;27803;42.740;23.340;2023-12-20T11:42:21;95189.78;;;2.09;100.00
39937;BME280;27803;42.740;23.340;2023-12-20T11:44:47;95155.34;;;1.75;100.00
39937;BME280;27803;42.740;23.340;2023-12-20T11:47:13;95180.88;;;1.86;100.00
39937;BME280;27803;42.740;23.340;2023-12-20T11:49:40;95149.81;;;1.87;100.00
39937;BME280;27803;42.740;23.340;2023-12-20T11:52:06;95140.84;;;1.74;100.00
39937;BME280;27803;42.740;23.340;2023-12-20T11:54:32;95146.34;;;1.79;100.00
39937;BME280;27803;42.740;23.340;2023-12-20T11:56:57;95130.88;;;1.53;100.00
39937;BME280;27803;42.740;23.340;2023-12-20T11:59:23;95095.75;;;1.52;100.00
39937;BME280;27803;42.740;23.340;2023-12-20T12:01:49;95115.13;;;1.82;100.00
39937;BME280;27803;42.740;23.340;2023-12-20T12:04:15;95123.22;;;1.87;100.00
39937;BME280;27803;42.740;23.340;2023-12-20T12:06:43;95124.22;;;1.94;100.00
39937;BME280;27803;42.740;23.340;2023-12-20T12:09:08;95111.28;;;1.86;100.00
39937;BME280;27803;42.740;23.340;2023-12-20T12:11:33;95129.09;;;1.97;100.00
39937;BME280;27803;42.740;23.340;2023-12-20T12:13:59;95110.16;;;1.88;100.00
39937;BME280;27803;42.740;23.340;2023-12-20T12:16:25;95086.22;;;1.70;100.00
39937;BME280;27803;42.740;23.340;2023-12-20T12:18:57;95120.63;;;1.87;100.00
39937;BME280;27803;42.740;23.340;2023-12-20T12:21:23;95095.31;;;2.08;100.00
39937;BME280;27803;42.740;23.340;2023-12-20T12:23:48;95095.06;;;2.19;100.00
39937;BME280;27803;42.740;23.340;2023-12-20T12:26:13;95076.06;;;2.28;100.00
39937;BME280;27803;42.740;23.340;2023-12-20T12:28:42;95084.47;;;2.31;100.00
39937;BME280;27803;42.740;23.340;2023-12-20T12:31:09;95091.28;;;2.40;100.00
39937;BME280;27803;42.740;23.340;2023-12-20T12:33:38;95110.56;;;2.27;100.00
39937;BME280;27803;42.740;23.340;2023-12-20T12:36:04;95096.41;;;2.32;100.00
39937;BME280;27803;42.740;23.340;2023-12-20T12:38:32;95078.81;;;2.27;100.00
39937;BME280;27803;42.740;23.340;2023-12-20T12:40:58;95076.44;;;2.42;100.00
39937;BME280;27803;42.740;23.340;2023-12-20T12:43:23;95109.72;;;2.53;100.00
39937;BME280;27803;42.740;23.340;2023-12-20T12:45:49;95087.09;;;2.39;100.00
39937;BME280;27803;42.740;23.340;2023-12-20T12:48:15;95065.75;;;2.28;100.00